createdAt,value
2022-09-09T00:08:40.299Z,73.37
2022-09-09T00:19:18.771Z,73.25
2022-09-09T00:29:49.666Z,73.02
2022-09-09T00:40:24.911Z,72.86
2022-09-09T00:51:01.231Z,72.53
2022-09-09T01:01:29.161Z,71.90
2022-09-09T01:12:04.267Z,71.51
2022-09-09T01:22:42.518Z,71.66
2022-09-09T01:33:16.529Z,71.97
2022-09-09T01:43:44.505Z,72.12
2022-09-09T01:54:12.838Z,71.55
2022-09-09T02:04:46.776Z,71.56
2022-09-09T02:15:23.123Z,71.71
2022-09-09T02:25:54.049Z,71.85
2022-09-09T02:36:25.433Z,71.95
2022-09-09T02:47:15.520Z,71.59
2022-09-09T02:57:46.546Z,71.23
2022-09-09T03:08:15.180Z,71.18
2022-09-09T03:18:43.772Z,71.55
2022-09-09T03:29:13.453Z,71.24
2022-09-09T03:39:41.412Z,70.67
2022-09-09T03:50:12.178Z,69.96
2022-09-09T04:00:43.498Z,69.71
2022-09-09T04:11:11.666Z,68.94
2022-09-09T04:21:40.818Z,69.66
2022-09-09T04:32:08.822Z,70.39
2022-09-09T04:42:40.307Z,70.62
2022-09-09T04:53:09.008Z,70.69
2022-09-09T05:03:36.997Z,71.14
2022-09-09T05:14:05.303Z,71.20
2022-09-09T05:24:34.408Z,71.13
2022-09-09T05:35:02.653Z,71.14
2022-09-09T05:45:30.595Z,71.29
2022-09-09T05:56:07.327Z,72.16
2022-09-09T06:06:37.984Z,71.93
2022-09-09T06:17:06.346Z,71.56
2022-09-09T06:27:34.276Z,71.91
2022-09-09T06:38:02.143Z,71.57
2022-09-09T06:48:30.463Z,70.73
2022-09-09T06:59:00.416Z,70.58
2022-09-09T07:09:28.607Z,69.99
2022-09-09T07:19:57.981Z,69.22
2022-09-09T07:30:27.939Z,67.87
2022-09-09T07:40:56.141Z,66.48
2022-09-09T07:51:26.876Z,66.05
2022-09-09T08:01:56.048Z,64.63
2022-09-09T08:12:24.510Z,62.62
2022-09-09T08:22:52.411Z,61.46
2022-09-09T08:33:20.683Z,60.71
2022-09-09T08:43:51.516Z,59.79
2022-09-09T08:54:41.451Z,59.10
2022-09-09T09:05:22.115Z,59.61
2022-09-09T09:15:52.853Z,59.21
2022-09-09T09:26:23.437Z,57.92
2022-09-09T09:36:58.535Z,57.82
2022-09-09T09:47:28.120Z,57.64
2022-09-09T09:57:56.447Z,56.73
2022-09-09T10:08:25.006Z,56.26
2022-09-09T10:19:03.184Z,56.89
2022-09-09T10:29:45.205Z,56.83
2022-09-09T10:40:33.933Z,55.37
2022-09-09T10:51:16.805Z,55.19
2022-09-09T11:01:49.988Z,54.99
2022-09-09T11:12:22.255Z,54.92
2022-09-09T11:22:55.701Z,55.60
2022-09-09T11:33:50.618Z,54.70
2022-09-09T11:44:26.993Z,53.91
2022-09-09T11:54:55.258Z,52.51
2022-09-09T12:05:24.029Z,52.23
2022-09-09T12:15:54.778Z,52.42
2022-09-09T12:26:37.481Z,52.56
2022-09-09T12:37:08.668Z,52.04
2022-09-09T12:47:42.890Z,51.54
2022-09-09T12:58:15.931Z,51.25
2022-09-09T13:08:44.768Z,51.51
2022-09-09T13:19:16.967Z,51.45
2022-09-09T13:29:56.964Z,50.97
2022-09-09T13:40:26.316Z,51.28
2022-09-09T13:51:00.781Z,50.79
2022-09-09T14:01:30.024Z,50.54
2022-09-09T14:11:58.880Z,49.00
2022-09-09T14:22:27.655Z,50.53
2022-09-09T14:32:55.570Z,52.12
2022-09-09T14:43:24.217Z,53.02
2022-09-09T14:53:55.557Z,54.26
2022-09-09T15:04:23.770Z,54.81
2022-09-09T15:14:51.925Z,53.63
2022-09-09T15:25:20.133Z,53.93
2022-09-09T15:35:48.004Z,54.35
2022-09-09T15:46:38.596Z,54.65
2022-09-09T15:57:09.088Z,55.58
2022-09-09T16:07:37.505Z,56.54
2022-09-09T16:18:06.347Z,57.26
2022-09-09T16:28:35.236Z,57.57
2022-09-09T16:39:06.061Z,57.60
2022-09-09T16:49:34.049Z,58.48
2022-09-09T17:00:02.438Z,59.25
2022-09-09T17:10:30.507Z,59.83
2022-09-09T17:20:58.326Z,59.99
2022-09-09T17:31:27.819Z,60.23
2022-09-09T17:41:56.381Z,60.64
2022-09-09T17:52:25.076Z,61.21
2022-09-09T18:02:52.988Z,61.61
2022-09-09T18:13:20.978Z,61.45
2022-09-09T18:23:52.346Z,61.53
2022-09-09T18:34:22.784Z,61.64
2022-09-09T18:44:50.762Z,62.12
2022-09-09T18:55:19.023Z,62.54
2022-09-09T19:05:55.416Z,63.04
2022-09-09T19:16:24.799Z,62.87
2022-09-09T19:26:54.776Z,63.18
2022-09-09T19:37:23.096Z,63.69
2022-09-09T19:47:51.316Z,63.99
2022-09-09T19:58:20.523Z,64.07
2022-09-09T20:08:49.780Z,64.12
2022-09-09T20:19:18.375Z,64.40
2022-09-09T20:29:47.284Z,64.24
2022-09-09T20:40:15.991Z,64.44
2022-09-09T20:50:44.747Z,64.70
2022-09-09T21:01:19.389Z,64.89
2022-09-09T21:11:47.963Z,64.77
2022-09-09T21:22:15.928Z,64.57
2022-09-09T21:32:43.739Z,64.68
2022-09-09T21:43:13.684Z,64.85
2022-09-09T21:53:41.721Z,64.53
2022-09-09T22:04:10.089Z,64.67
2022-09-09T22:14:38.149Z,64.85
2022-09-09T22:25:06.869Z,65.06
2022-09-09T22:35:42.041Z,65.31
2022-09-09T22:46:10.471Z,65.14
2022-09-09T22:56:38.382Z,65.54
2022-09-09T23:07:08.284Z,66.00
2022-09-09T23:17:36.371Z,66.32
2022-09-09T23:28:05.074Z,66.84
2022-09-09T23:38:32.962Z,67.25
2022-09-09T23:49:02.695Z,68.03
2022-09-09T23:59:30.760Z,68.55
